Terminal Aerodrome Forecast
Issued by NWS

Home | Current Version | Previous Version | Text Only | Print | Product List | Glossary On
Versions: 1 2 3 4 5 6 7 8 9 10 11 12 13 14 15 16 17 18
000
FTUS42 KGSP 240207 AAA
TAFHKY
TAF AMD
KHKY 240207Z 2402/2424 07012G20KT 6SM -RA BR BKN008 OVC012
      TEMPO 2402/2406 5SM RA BR OVC007
     FM240600 07015G22KT 2SM RA BR OVC005
     FM240900 07012G20KT 1SM RA BR OVC005
     FM241200 06011KT 3SM -RA BR OVC005
     FM241700 05006KT 3SM -SHRA BR OVC008 PROB30 2418/2424 1SM TSRA
      BR OVC004CB=

USA.gov is the U.S. government's official web portal to all federal, state and local government web resources and services.